ハルツーム の空港の天気 - METARとTAF

ハルツーム国際空港 ( HSSS / KRT ) - スーダン ハルツーム
飛行場実況気象(Metar)
観測時間08/22 18:30 CAT (08/22 16:30 UTC)
風向・風速南西 6m/s
視程10km以上
天気現象
なし
気温33℃
湿度38%
気圧1010hPa
METARHSSS 221630Z 22011KT CAVOK 33/17 Q1010 NOSIG
過去の天気等 Google飛行場航空写真 Wunderground天気予報

過去48時間のMETAR

飛行場予報(TAF)
発表時間: 8/22 13:00 CAT (8/22 11:00 UTC)
予報対象時間: 22日14時 CAT ~ 23日20時 CAT
風向・風速南西 6m/s 瞬間風速 11m/s
視程10km以上
なし
22日17時 CAT ~ 22日20時 CAT に一時的に
視程10km以上
少しの雲 雲底高度 1220m
全天の4割程度の雲 雲底高度 4270m
HSSS 221100Z 2212/2318 22012G22KT CAVOK
TEMPO 2215/2218 9999 FEW040 SCT140